Time;durP1;ratioP1;P1;durP2;ratioP2;P2;SDS_P1;SDS_P2;PMS_P1;PMS_P2;Temp;Humidity;BMP_temperature;BMP_pressure;BME280_temperature;BME280_humidity;BME280_pressure;Samples;Min_cycle;Max_cycle;Signal;HPM_P1;HPM_P2
2021/09/18 00:01:22;;;;;;;5.30;2.40;;;12.60;99.90;;;;;;4919692;29;20058;-88
2021/09/18 00:03:47;;;;;;;4.45;2.10;;;12.60;99.90;;;;;;4919459;29;20121;-87
2021/09/18 00:06:13;;;;;;;3.20;2.42;;;12.60;99.90;;;;;;4919004;29;20045;-87
2021/09/18 00:08:41;;;;;;;3.20;2.22;;;12.60;99.90;;;;;;4936690;29;20036;-88
2021/09/18 00:11:07;;;;;;;6.03;2.30;;;12.60;99.90;;;;;;4919438;29;20082;-86
2021/09/18 00:13:32;;;;;;;3.30;2.40;;;12.60;99.90;;;;;;4919152;29;20134;-86
2021/09/18 00:15:59;;;;;;;7.15;2.67;;;12.60;99.90;;;;;;4936197;29;20032;-86
2021/09/18 00:18:25;;;;;;;2.85;2.50;;;12.50;99.90;;;;;;4918807;29;20110;-86
2021/09/18 00:20:50;;;;;;;8.10;3.80;;;12.50;99.90;;;;;;4918759;29;20075;-86
2021/09/18 00:23:16;;;;;;;11.57;3.17;;;12.30;99.90;;;;;;4936080;29;20038;-85
2021/09/18 00:25:42;;;;;;;6.82;3.40;;;12.20;99.90;;;;;;4918839;29;20028;-87
2021/09/18 00:28:08;;;;;;;6.78;3.28;;;12.10;99.90;;;;;;4918889;29;20379;-86
2021/09/18 00:30:33;;;;;;;6.47;3.55;;;12.10;99.90;;;;;;4918949;29;20071;-86
2021/09/18 00:33:01;;;;;;;3.42;2.70;;;12.10;99.90;;;;;;4918771;29;20413;-87
2021/09/18 00:35:27;;;;;;;4.97;3.05;;;12.10;99.90;;;;;;4918686;29;20521;-87
2021/09/18 00:37:53;;;;;;;4.88;2.88;;;12.10;99.90;;;;;;4918712;29;20032;-87
2021/09/18 00:40:18;;;;;;;6.63;2.50;;;12.10;99.90;;;;;;4935940;29;20116;-87
2021/09/18 00:42:44;;;;;;;3.83;2.40;;;12.10;99.90;;;;;;4935649;29;20028;-87
2021/09/18 00:45:10;;;;;;;5.32;2.60;;;12.10;99.90;;;;;;4918647;29;20031;-86
2021/09/18 00:47:35;;;;;;;3.25;2.50;;;12.10;99.90;;;;;;4918495;29;20112;-86
2021/09/18 00:50:03;;;;;;;4.55;2.60;;;12.10;99.90;;;;;;4918274;29;20024;-88
2021/09/18 00:52:28;;;;;;;4.00;2.17;;;12.10;99.90;;;;;;4935661;29;20032;-86
2021/09/18 00:54:54;;;;;;;2.70;2.35;;;12.10;99.90;;;;;;4918522;29;20091;-86
2021/09/18 00:57:20;;;;;;;3.45;2.42;;;12.10;99.90;;;;;;4918210;29;20055;-86
2021/09/18 00:59:46;;;;;;;5.20;2.58;;;12.10;99.90;;;;;;4918490;29;20042;-87
2021/09/18 01:02:12;;;;;;;3.72;2.22;;;12.10;99.90;;;;;;4918294;29;20028;-87
2021/09/18 01:04:39;;;;;;;3.00;2.35;;;12.10;99.90;;;;;;4935350;29;20090;-86
2021/09/18 01:07:05;;;;;;;3.75;2.00;;;12.10;99.90;;;;;;4918330;29;20099;-86
2021/09/18 01:09:32;;;;;;;2.95;2.20;;;12.10;99.90;;;;;;4918158;29;20028;-87
2021/09/18 01:11:59;;;;;;;3.90;2.75;;;12.10;99.90;;;;;;4935397;29;20028;-86
2021/09/18 01:14:25;;;;;;;2.92;2.65;;;12.00;99.90;;;;;;4918274;29;20019;-87
2021/09/18 01:16:51;;;;;;;5.20;2.08;;;12.00;99.90;;;;;;4918165;29;20038;-87
2021/09/18 01:19:17;;;;;;;3.03;2.15;;;11.90;99.90;;;;;;4917954;29;20035;-87
2021/09/18 01:21:47;;;;;;;3.78;2.35;;;12.00;99.90;;;;;;4918243;29;20448;-87
2021/09/18 01:24:13;;;;;;;7.22;2.78;;;11.90;99.90;;;;;;4917799;29;20118;-86
2021/09/18 01:26:39;;;;;;;2.97;2.55;;;11.90;99.90;;;;;;4918161;29;20545;-87
2021/09/18 01:29:06;;;;;;;3.17;2.25;;;11.90;99.90;;;;;;4918272;29;20035;-88
2021/09/18 01:31:46;;;;;;;6.38;2.90;;;11.80;99.90;;;;;;4918233;29;20038;-87
2021/09/18 01:34:20;;;;;;;4.13;2.85;;;11.70;99.90;;;;;;4918657;29;20024;-87
2021/09/18 01:36:46;;;;;;;5.70;3.63;;;11.60;99.90;;;;;;4936526;29;20065;-87
2021/09/18 01:39:13;;;;;;;5.53;3.13;;;11.50;99.90;;;;;;4918590;29;20131;-87
2021/09/18 01:41:41;;;;;;;9.48;3.17;;;11.40;99.90;;;;;;4919144;29;20028;-88
2021/09/18 01:44:07;;;;;;;4.05;3.10;;;11.40;99.90;;;;;;4918948;29;20032;-87
2021/09/18 01:46:33;;;;;;;3.80;2.70;;;11.40;99.90;;;;;;4936230;29;20071;-87
2021/09/18 01:48:59;;;;;;;5.43;2.80;;;11.40;99.90;;;;;;4918272;29;20024;-87
2021/09/18 01:51:27;;;;;;;5.00;2.47;;;11.40;99.90;;;;;;4918002;29;20036;-87
2021/09/18 01:53:53;;;;;;;4.85;2.83;;;11.40;99.90;;;;;;4935117;29;20035;-86
2021/09/18 01:56:19;;;;;;;4.47;2.80;;;11.40;99.90;;;;;;4917902;29;20389;-87
2021/09/18 01:58:44;;;;;;;6.25;2.95;;;11.40;99.90;;;;;;4934642;29;20401;-87
2021/09/18 02:01:10;;;;;;;5.60;2.75;;;11.30;99.90;;;;;;4935116;29;20085;-87
2021/09/18 02:03:36;;;;;;;7.82;3.00;;;11.20;99.90;;;;;;4917860;29;20027;-86
2021/09/18 02:06:02;;;;;;;4.00;2.70;;;11.20;99.90;;;;;;4918601;29;20091;-86
2021/09/18 02:08:28;;;;;;;4.75;3.05;;;11.20;99.90;;;;;;4918470;29;20625;-86
2021/09/18 02:10:55;;;;;;;4.80;2.67;;;11.20;99.90;;;;;;4918025;29;20111;-86
2021/09/18 02:13:21;;;;;;;6.63;2.90;;;11.20;99.90;;;;;;4934655;29;20031;-86
2021/09/18 02:15:47;;;;;;;3.53;2.58;;;11.10;99.90;;;;;;4902334;29;20494;-87
2021/09/18 02:18:13;;;;;;;7.10;3.13;;;11.10;99.90;;;;;;4917909;29;20482;-86
2021/09/18 02:20:40;;;;;;;7.35;2.70;;;11.10;99.90;;;;;;4918037;29;20303;-87
2021/09/18 02:23:09;;;;;;;4.32;2.70;;;11.10;99.90;;;;;;4918158;29;20148;-86
2021/09/18 02:25:35;;;;;;;5.50;2.70;;;11.10;99.90;;;;;;4917972;29;20024;-87
2021/09/18 02:28:00;;;;;;;5.72;2.97;;;11.10;99.90;;;;;;4935504;29;20046;-86
2021/09/18 02:30:29;;;;;;;6.70;3.17;;;11.20;99.90;;;;;;4918269;29;20474;-86
2021/09/18 02:32:56;;;;;;;5.00;3.50;;;11.20;99.90;;;;;;4923549;29;20058;-85
2021/09/18 02:35:25;;;;;;;4.18;2.35;;;11.20;99.90;;;;;;4920459;29;20436;-86
2021/09/18 02:37:52;;;;;;;3.45;2.75;;;11.20;99.90;;;;;;4941260;29;20102;-86
2021/09/18 02:40:19;;;;;;;4.30;2.63;;;11.20;99.90;;;;;;4925411;29;20185;-87
2021/09/18 02:42:48;;;;;;;3.92;2.70;;;11.20;99.90;;;;;;4925516;29;20358;-86
2021/09/18 02:45:14;;;;;;;6.22;3.08;;;11.20;99.90;;;;;;4924164;29;20079;-86
2021/09/18 02:47:40;;;;;;;7.60;3.58;;;11.20;99.90;;;;;;4940589;29;20035;-86
2021/09/18 02:50:09;;;;;;;3.88;2.58;;;11.20;99.90;;;;;;4922127;29;20078;-87
2021/09/18 02:52:35;;;;;;;4.75;3.20;;;11.20;99.90;;;;;;4920876;29;20045;-87
2021/09/18 02:55:00;;;;;;;5.65;3.38;;;11.20;99.90;;;;;;4938227;29;20028;-87
2021/09/18 02:57:26;;;;;;;7.07;3.50;;;11.20;99.90;;;;;;4920843;29;20050;-86
2021/09/18 02:59:52;;;;;;;4.75;2.78;;;11.10;99.90;;;;;;4920816;29;20135;-87
2021/09/18 03:02:18;;;;;;;6.00;3.10;;;11.10;99.90;;;;;;4937801;29;20035;-87
2021/09/18 03:04:43;;;;;;;5.60;3.28;;;11.10;99.90;;;;;;4938048;29;20367;-87
2021/09/18 03:07:09;;;;;;;7.45;3.17;;;11.00;99.90;;;;;;4920629;29;20119;-86
2021/09/18 03:09:35;;;;;;;4.72;2.78;;;10.90;99.90;;;;;;4920570;29;20028;-86
2021/09/18 03:12:01;;;;;;;3.83;2.65;;;10.90;99.90;;;;;;4920387;29;20557;-87
2021/09/18 03:14:26;;;;;;;4.47;2.90;;;10.90;99.90;;;;;;4920700;29;20091;-87
2021/09/18 03:16:52;;;;;;;6.05;3.20;;;10.90;99.90;;;;;;4920612;29;20044;-87
2021/09/18 03:19:18;;;;;;;4.47;2.85;;;10.90;99.90;;;;;;4920310;29;20045;-87
2021/09/18 03:21:43;;;;;;;3.85;2.95;;;10.80;99.90;;;;;;4920161;29;20030;-87
2021/09/18 03:24:09;;;;;;;3.75;2.85;;;10.80;99.90;;;;;;4920456;29;20085;-87
2021/09/18 03:26:35;;;;;;;7.38;3.22;;;10.70;99.90;;;;;;4920528;29;20496;-87
2021/09/18 03:29:02;;;;;;;5.68;3.50;;;10.70;99.90;;;;;;4937366;29;20043;-86
2021/09/18 03:31:29;;;;;;;7.10;4.10;;;10.60;99.90;;;;;;4920009;29;20035;-87
2021/09/18 03:33:54;;;;;;;6.07;3.60;;;10.60;99.90;;;;;;4920657;29;20028;-87
2021/09/18 03:36:20;;;;;;;7.90;3.47;;;10.50;99.90;;;;;;4920472;29;20761;-87
2021/09/18 03:38:46;;;;;;;6.07;3.92;;;10.50;99.90;;;;;;4920387;29;20039;-87
2021/09/18 03:41:12;;;;;;;4.93;3.33;;;10.50;99.90;;;;;;4919533;29;20071;-87
2021/09/18 03:43:37;;;;;;;6.13;3.33;;;10.50;99.90;;;;;;4936344;29;20087;-87
2021/09/18 03:46:03;;;;;;;5.30;3.00;;;10.60;99.90;;;;;;4937077;29;20031;-87
2021/09/18 03:48:29;;;;;;;6.13;3.53;;;10.50;99.90;;;;;;4919824;29;20098;-87
2021/09/18 03:50:54;;;;;;;5.95;3.40;;;10.60;99.90;;;;;;4920330;29;20367;-86
2021/09/18 03:53:20;;;;;;;5.88;3.10;;;10.60;99.90;;;;;;4937351;29;20103;-87
2021/09/18 03:55:46;;;;;;;4.55;3.53;;;10.60;99.90;;;;;;4920206;29;20389;-87
2021/09/18 03:58:11;;;;;;;8.88;4.50;;;10.50;99.90;;;;;;4919456;29;20476;-87
2021/09/18 04:00:37;;;;;;;4.80;3.58;;;10.50;99.90;;;;;;4920055;29;20028;-87
2021/09/18 04:03:03;;;;;;;5.53;3.90;;;10.40;99.90;;;;;;4919506;29;20059;-87
2021/09/18 04:05:28;;;;;;;5.47;3.47;;;10.40;99.90;;;;;;4917967;29;20024;-87
2021/09/18 04:07:54;;;;;;;5.25;3.25;;;10.40;99.90;;;;;;4917199;29;20058;-87
2021/09/18 04:10:20;;;;;;;5.95;3.20;;;10.40;99.90;;;;;;4935371;29;20553;-87
2021/09/18 04:12:45;;;;;;;6.03;3.38;;;10.50;99.90;;;;;;4918176;29;20488;-87
2021/09/18 04:15:11;;;;;;;5.03;3.17;;;10.50;99.90;;;;;;4918178;29;20493;-87
2021/09/18 04:17:37;;;;;;;5.68;3.33;;;10.50;99.90;;;;;;4915707;29;20043;-87
2021/09/18 04:20:04;;;;;;;7.15;3.92;;;10.50;99.90;;;;;;4918756;29;20118;-87
2021/09/18 04:22:30;;;;;;;5.72;3.50;;;10.50;99.90;;;;;;4935852;29;20028;-88
2021/09/18 04:24:56;;;;;;;5.57;3.83;;;10.40;99.90;;;;;;4920182;29;20043;-87
2021/09/18 04:27:21;;;;;;;6.15;3.83;;;10.40;99.90;;;;;;4920233;29;20411;-87
2021/09/18 04:29:47;;;;;;;9.70;4.40;;;10.40;99.90;;;;;;4921490;29;20175;-87
2021/09/18 04:32:13;;;;;;;4.75;3.35;;;10.40;99.90;;;;;;4926292;29;20122;-87
2021/09/18 04:34:38;;;;;;;6.43;3.83;;;10.40;99.90;;;;;;4933503;29;20063;-87
2021/09/18 04:37:04;;;;;;;6.90;3.70;;;10.40;99.90;;;;;;4939351;29;20165;-87
2021/09/18 04:39:31;;;;;;;6.82;3.67;;;10.40;99.90;;;;;;4942226;29;20054;-87
2021/09/18 04:41:56;;;;;;;5.95;4.00;;;10.50;99.90;;;;;;4959567;29;20015;-86
2021/09/18 04:44:22;;;;;;;6.47;3.78;;;10.50;99.90;;;;;;4959143;29;20036;-87
2021/09/18 04:46:48;;;;;;;5.50;3.67;;;10.50;99.90;;;;;;4931341;29;20016;-87
2021/09/18 04:49:14;;;;;;;5.72;4.07;;;10.50;99.90;;;;;;4948835;28;20035;-87
2021/09/18 04:51:40;;;;;;;5.43;4.07;;;10.50;99.90;;;;;;4926054;29;20027;-87
2021/09/18 04:54:05;;;;;;;7.32;3.97;;;10.50;99.90;;;;;;4923351;29;20027;-88
2021/09/18 04:56:31;;;;;;;5.97;4.32;;;10.50;99.90;;;;;;4923147;29;20031;-87
2021/09/18 04:58:57;;;;;;;8.13;3.88;;;10.50;99.90;;;;;;4922143;29;20036;-87
2021/09/18 05:01:22;;;;;;;9.63;4.22;;;10.50;99.90;;;;;;4923316;29;20034;-86
2021/09/18 05:03:48;;;;;;;8.13;4.15;;;10.40;99.90;;;;;;4939353;29;20106;-88
2021/09/18 05:06:14;;;;;;;11.13;4.78;;;10.40;99.90;;;;;;4921076;29;20521;-87
2021/09/18 05:08:39;;;;;;;6.95;4.30;;;10.40;99.90;;;;;;4920343;29;20111;-87
2021/09/18 05:11:05;;;;;;;5.65;4.18;;;10.30;99.90;;;;;;4920037;29;20371;-87
2021/09/18 05:13:31;;;;;;;11.38;3.90;;;10.30;99.90;;;;;;4920445;29;20028;-87
2021/09/18 05:15:56;;;;;;;8.07;4.38;;;10.30;99.90;;;;;;4920161;29;20449;-87
2021/09/18 05:18:22;;;;;;;9.00;4.53;;;10.30;99.90;;;;;;4920040;29;20039;-88
2021/09/18 05:20:48;;;;;;;8.30;4.40;;;10.30;99.90;;;;;;4937021;29;20034;-87
2021/09/18 05:23:14;;;;;;;6.13;4.18;;;10.30;99.90;;;;;;4937198;29;20482;-87
2021/09/18 05:25:39;;;;;;;7.85;4.47;;;10.30;99.90;;;;;;4919747;29;20032;-87
2021/09/18 05:28:05;;;;;;;8.40;4.32;;;10.30;99.90;;;;;;4920018;29;20024;-88
2021/09/18 05:30:31;;;;;;;7.88;4.20;;;10.30;99.90;;;;;;4919973;29;20026;-86
2021/09/18 05:32:57;;;;;;;13.60;5.82;;;10.30;99.90;;;;;;4936236;29;20417;-87
2021/09/18 05:35:22;;;;;;;8.93;5.18;;;10.30;99.90;;;;;;4919544;29;20031;-87
2021/09/18 05:37:48;;;;;;;9.07;4.88;;;10.30;99.90;;;;;;4936294;29;20092;-87
2021/09/18 05:40:14;;;;;;;7.53;4.45;;;10.30;99.90;;;;;;4919044;29;20079;-87
2021/09/18 05:42:39;;;;;;;6.63;4.20;;;10.30;99.90;;;;;;4918964;29;20075;-87
2021/09/18 05:45:06;;;;;;;8.85;5.00;;;10.30;99.90;;;;;;4919102;29;20032;-86
2021/09/18 05:47:32;;;;;;;10.73;5.30;;;10.30;99.90;;;;;;4919181;29;20545;-87
2021/09/18 05:49:58;;;;;;;9.05;4.43;;;10.30;99.90;;;;;;4918667;29;20063;-86
2021/09/18 05:52:24;;;;;;;9.80;4.60;;;10.40;99.90;;;;;;4935801;29;20106;-88
2021/09/18 05:54:51;;;;;;;9.55;4.25;;;10.30;99.90;;;;;;4918229;29;20517;-87
2021/09/18 05:57:16;;;;;;;5.90;4.13;;;10.30;99.90;;;;;;4918420;29;20164;-87
2021/09/18 05:59:42;;;;;;;7.53;4.30;;;10.40;99.90;;;;;;4935194;29;20174;-86
2021/09/18 06:02:08;;;;;;;9.77;4.20;;;10.30;99.90;;;;;;4918533;29;20386;-87
2021/09/18 06:04:33;;;;;;;10.00;4.35;;;10.40;99.90;;;;;;4918738;29;20027;-87
2021/09/18 06:07:01;;;;;;;7.75;4.03;;;10.40;99.90;;;;;;4935586;29;20051;-87
2021/09/18 06:09:27;;;;;;;6.97;3.83;;;10.50;99.90;;;;;;4918575;29;20036;-87
2021/09/18 06:11:53;;;;;;;8.70;4.22;;;10.50;99.90;;;;;;4922020;29;20046;-89
2021/09/18 06:14:19;;;;;;;8.07;4.07;;;10.50;99.90;;;;;;4938986;29;20106;-88
2021/09/18 06:16:44;;;;;;;8.68;4.13;;;10.50;99.90;;;;;;4938233;29;20024;-87
2021/09/18 06:19:11;;;;;;;6.13;3.70;;;10.60;99.90;;;;;;4922565;29;20039;-86
2021/09/18 06:21:38;;;;;;;5.78;4.00;;;10.60;99.90;;;;;;4939114;29;20026;-88
2021/09/18 06:24:04;;;;;;;6.35;3.92;;;10.60;99.90;;;;;;4939517;29;20095;-88
2021/09/18 06:26:30;;;;;;;6.35;3.50;;;10.60;99.90;;;;;;4921852;29;20032;-88
2021/09/18 06:28:56;;;;;;;5.38;3.90;;;10.70;99.90;;;;;;4939534;29;20470;-87
2021/09/18 06:31:21;;;;;;;5.65;4.07;;;10.60;99.90;;;;;;4923900;29;20115;-87
2021/09/18 06:33:47;;;;;;;7.38;4.05;;;10.60;99.90;;;;;;4944589;29;20036;-87
2021/09/18 06:36:12;;;;;;;5.65;4.00;;;10.70;99.90;;;;;;4941585;29;20031;-87
2021/09/18 06:38:38;;;;;;;6.85;4.72;;;10.60;99.90;;;;;;4939932;29;20042;-87
2021/09/18 06:41:04;;;;;;;8.52;4.32;;;10.60;99.90;;;;;;4935310;29;20048;-87
2021/09/18 06:43:29;;;;;;;7.20;4.20;;;10.60;99.90;;;;;;4948140;29;20496;-89
2021/09/18 06:45:56;;;;;;;7.93;4.78;;;10.60;99.90;;;;;;4953604;29;20024;-88
2021/09/18 06:48:21;;;;;;;10.75;6.10;;;10.50;99.90;;;;;;4928957;29;20058;-87
2021/09/18 06:50:47;;;;;;;7.22;4.93;;;10.50;99.90;;;;;;4927350;29;20075;-88
2021/09/18 06:53:13;;;;;;;9.52;4.80;;;10.50;99.90;;;;;;4923098;29;20031;-87
2021/09/18 06:55:38;;;;;;;8.07;5.25;;;10.40;99.90;;;;;;4922417;29;20031;-87
2021/09/18 06:58:04;;;;;;;10.25;5.28;;;10.50;99.90;;;;;;4921349;29;20051;-87
2021/09/18 07:00:30;;;;;;;9.60;5.07;;;10.40;99.90;;;;;;4921967;29;20035;-87
2021/09/18 07:02:56;;;;;;;8.82;5.65;;;10.40;99.90;;;;;;4946673;29;20047;-88
2021/09/18 07:05:22;;;;;;;8.02;5.03;;;10.40;99.90;;;;;;4946173;29;20414;-87
2021/09/18 07:07:48;;;;;;;8.57;5.05;;;10.40;99.90;;;;;;4923670;29;20028;-89
2021/09/18 07:10:15;;;;;;;7.78;5.10;;;10.50;99.90;;;;;;4936089;29;20023;-88
2021/09/18 07:12:41;;;;;;;9.05;4.75;;;10.50;99.90;;;;;;4920904;29;20400;-89
2021/09/18 07:15:09;;;;;;;8.57;5.15;;;10.60;99.90;;;;;;4937617;29;20039;-88
2021/09/18 07:17:34;;;;;;;9.23;5.20;;;10.60;99.90;;;;;;4925196;29;20035;-89
2021/09/18 07:20:01;;;;;;;7.45;4.93;;;10.60;99.90;;;;;;4920809;29;20060;-88
2021/09/18 07:22:28;;;;;;;7.47;5.15;;;10.70;99.90;;;;;;4919781;29;20028;-89
2021/09/18 07:24:54;;;;;;;7.80;4.65;;;10.80;99.90;;;;;;4919835;29;20056;-88
2021/09/18 07:27:20;;;;;;;8.27;4.90;;;10.80;99.90;;;;;;4921054;29;20066;-89
2021/09/18 07:29:47;;;;;;;9.63;5.00;;;10.80;99.90;;;;;;4921042;29;20035;-88
2021/09/18 07:32:13;;;;;;;10.57;5.40;;;10.90;99.90;;;;;;4937924;29;20031;-89
2021/09/18 07:34:39;;;;;;;6.93;4.60;;;10.90;99.90;;;;;;4920901;29;20063;-89
2021/09/18 07:37:05;;;;;;;8.82;4.13;;;11.00;99.90;;;;;;4920634;29;20481;-89
2021/09/18 07:39:31;;;;;;;8.95;4.85;;;11.00;99.90;;;;;;4920668;29;20098;-89
2021/09/18 07:41:57;;;;;;;6.60;4.68;;;11.10;99.90;;;;;;4937926;29;20024;-89
2021/09/18 07:44:23;;;;;;;7.00;4.25;;;11.10;99.90;;;;;;4937756;29;20110;-88
2021/09/18 07:46:49;;;;;;;6.05;4.18;;;11.20;99.90;;;;;;4937811;29;20427;-89
2021/09/18 07:49:16;;;;;;;6.97;5.03;;;11.30;99.90;;;;;;4937830;29;20099;-89
2021/09/18 07:51:43;;;;;;;8.02;4.65;;;11.30;99.90;;;;;;4936980;29;20544;-88
2021/09/18 07:54:08;;;;;;;9.50;4.57;;;11.40;99.90;;;;;;4919999;29;20126;-89
2021/09/18 07:56:34;;;;;;;10.07;4.60;;;11.40;99.90;;;;;;4919872;29;20187;-89
2021/09/18 07:59:01;;;;;;;5.97;4.45;;;11.50;99.90;;;;;;4919456;29;20044;-89
2021/09/18 08:01:28;;;;;;;5.65;4.20;;;11.60;99.90;;;;;;4932981;29;20024;-89
2021/09/18 08:03:58;;;;;;;9.15;4.47;;;11.70;99.90;;;;;;4919178;29;20031;-88
2021/09/18 08:06:25;;;;;;;5.38;4.03;;;11.70;99.90;;;;;;4919198;29;20441;-89
2021/09/18 08:08:52;;;;;;;10.07;4.63;;;11.80;99.90;;;;;;4919259;29;20130;-89
2021/09/18 08:11:19;;;;;;;6.15;4.40;;;11.90;99.90;;;;;;4920340;29;20027;-88
2021/09/18 08:13:49;;;;;;;10.55;5.20;;;12.00;99.90;;;;;;4920207;29;20091;-88
2021/09/18 08:16:15;;;;;;;10.32;5.38;;;12.10;99.90;;;;;;4920200;29;20028;-89
2021/09/18 08:18:41;;;;;;;8.13;4.93;;;12.10;99.90;;;;;;4919872;29;20039;-89
2021/09/18 08:21:07;;;;;;;8.48;5.30;;;12.20;99.90;;;;;;4919924;29;20032;-89
2021/09/18 08:23:33;;;;;;;8.85;5.78;;;12.30;99.90;;;;;;4937059;29;20031;-89
2021/09/18 08:25:58;;;;;;;9.18;6.05;;;12.40;99.90;;;;;;4919241;29;20020;-89
2021/09/18 08:28:24;;;;;;;8.30;5.45;;;12.50;99.90;;;;;;4918489;29;20040;-89
2021/09/18 08:30:50;;;;;;;11.02;6.32;;;12.60;99.90;;;;;;4916314;29;20024;-89
2021/09/18 08:33:15;;;;;;;11.35;6.72;;;12.70;99.90;;;;;;4918668;29;20469;-89
2021/09/18 08:35:41;;;;;;;14.38;8.20;;;12.80;99.90;;;;;;4918933;29;20032;-89
2021/09/18 08:38:07;;;;;;;17.95;10.77;;;12.90;99.90;;;;;;4918764;29;20035;-89
2021/09/18 08:40:38;;;;;;;18.13;8.95;;;13.00;99.90;;;;;;4919149;29;20126;-89
2021/09/18 08:43:06;;;;;;;22.85;11.85;;;13.10;99.90;;;;;;4919156;29;20126;-90
2021/09/18 08:45:32;;;;;;;23.00;11.52;;;13.20;99.90;;;;;;4918649;29;20039;-90
2021/09/18 08:48:03;;;;;;;19.15;10.45;;;13.40;99.90;;;;;;4919067;29;20126;-90
2021/09/18 08:50:29;;;;;;;16.08;10.93;;;13.50;99.90;;;;;;4919216;29;20035;-91
2021/09/18 08:52:55;;;;;;;22.30;11.20;;;13.70;99.90;;;;;;4918939;29;20043;-90
2021/09/18 08:55:21;;;;;;;19.00;10.88;;;13.80;99.90;;;;;;4919111;29;20394;-90
2021/09/18 08:57:47;;;;;;;21.25;11.90;;;13.90;99.90;;;;;;4919007;29;20482;-89
2021/09/18 09:00:34;;;;;;;24.40;12.43;;;14.10;99.90;;;;;;4919495;29;20094;-90
2021/09/18 09:03:04;;;;;;;22.38;13.68;;;14.20;99.90;;;;;;4937207;29;20027;-90
2021/09/18 09:05:32;;;;;;;18.83;11.73;;;14.40;99.90;;;;;;4919986;29;20493;-91
2021/09/18 09:08:23;;;;;;;22.65;13.18;;;14.50;99.90;;;;;;4936888;29;20032;-90
2021/09/18 09:10:49;;;;;;;26.48;14.40;;;14.70;99.90;;;;;;4898071;29;20044;-90
2021/09/18 09:13:16;;;;;;;24.05;13.98;;;14.80;99.90;;;;;;4900900;29;20387;-90
2021/09/18 09:15:43;;;;;;;35.65;19.63;;;15.00;99.90;;;;;;4917558;29;20065;-89
2021/09/18 09:18:24;;;;;;;28.42;15.63;;;15.00;99.90;;;;;;4900612;29;20044;-88
2021/09/18 09:21:26;;;;;;;30.25;16.48;;;15.10;99.90;;;;;;4901024;29;20024;-89
2021/09/18 09:24:08;;;;;;;36.25;17.02;;;15.30;99.90;;;;;;4918597;29;20040;-90
2021/09/18 09:26:35;;;;;;;23.60;13.50;;;15.40;99.90;;;;;;4902225;29;20020;-89
2021/09/18 09:29:01;;;;;;;31.13;18.05;;;15.60;99.90;;;;;;4917419;29;20028;-89
2021/09/18 09:31:29;;;;;;;28.70;14.63;;;15.80;99.90;;;;;;4924865;29;20059;-90
2021/09/18 09:34:15;;;;;;;27.50;15.07;;;16.00;99.90;;;;;;4937272;29;20031;-88
2021/09/18 09:36:43;;;;;;;25.33;13.68;;;16.20;99.90;;;;;;4937854;29;20015;-87
2021/09/18 09:39:11;;;;;;;25.00;13.07;;;16.40;99.90;;;;;;4956892;29;20097;-88
2021/09/18 09:41:48;;;;;;;27.20;13.68;;;16.50;99.90;;;;;;4937083;29;20074;-88
2021/09/18 09:44:25;;;;;;;28.05;16.23;;;16.60;99.90;;;;;;4940096;29;20020;-88
2021/09/18 09:47:12;;;;;;;41.65;23.73;;;16.70;99.90;;;;;;4956146;29;20083;-88
2021/09/18 09:49:42;;;;;;;25.27;13.32;;;16.80;99.90;;;;;;4960572;29;20028;-88
2021/09/18 09:52:26;;;;;;;21.50;11.68;;;17.00;99.90;;;;;;4942588;29;20023;-85
2021/09/18 09:54:59;;;;;;;21.83;11.85;;;17.10;99.90;;;;;;4926552;29;20507;-85
2021/09/18 09:57:26;;;;;;;22.33;11.40;;;17.30;99.90;;;;;;4925650;29;20124;-87
2021/09/18 10:00:21;;;;;;;21.50;10.90;;;17.60;99.90;;;;;;4942219;29;20043;-87
2021/09/18 10:02:46;;;;;;;16.33;10.65;;;17.80;99.90;;;;;;4912020;29;20051;-87
2021/09/18 10:05:14;;;;;;;21.95;11.10;;;18.10;99.90;;;;;;4940407;29;20035;-88
2021/09/18 10:07:41;;;;;;;17.42;10.10;;;18.40;99.90;;;;;;4922833;29;20079;-87
2021/09/18 10:10:09;;;;;;;36.17;16.88;;;18.60;99.90;;;;;;4939733;29;20035;-88
2021/09/18 10:12:37;;;;;;;44.50;22.55;;;18.70;99.90;;;;;;4940567;29;20028;-88
2021/09/18 10:15:06;;;;;;;25.85;14.30;;;18.80;99.90;;;;;;4922799;29;20051;-87
2021/09/18 10:17:33;;;;;;;22.27;12.77;;;18.80;99.90;;;;;;4922623;29;20120;-88
2021/09/18 10:20:05;;;;;;;27.75;14.35;;;18.70;99.90;;;;;;4923191;29;20444;-88
2021/09/18 10:25:25;;;;;;;47.67;22.52;;;18.50;99.90;;;;;;4940418;29;20063;-88
2021/09/18 10:28:12;;;;;;;48.60;24.35;;;18.70;99.90;;;;;;4923233;29;20055;-88
2021/09/18 10:30:39;;;;;;;29.70;16.05;;;18.90;99.90;;;;;;4922581;29;20038;-87
2021/09/18 10:33:05;;;;;;;16.50;9.60;;;19.20;99.90;;;;;;4939623;29;20032;-87
2021/09/18 10:35:32;;;;;;;15.88;9.10;;;19.60;99.90;;;;;;4923042;29;20038;-88
2021/09/18 10:38:17;;;;;;;12.52;8.02;;;19.90;99.90;;;;;;4931326;29;20032;-88
2021/09/18 10:41:14;;;;;;;12.65;8.10;;;20.20;99.90;;;;;;4931563;29;20122;-88
2021/09/18 10:43:44;;;;;;;11.57;7.65;;;20.50;99.90;;;;;;4921036;29;20118;-88
2021/09/18 10:46:32;;;;;;;15.35;8.32;;;20.60;99.90;;;;;;4928476;29;20035;-86
2021/09/18 10:48:59;;;;;;;7.57;5.20;;;20.60;99.40;;;;;;4942908;29;20027;-87
2021/09/18 10:51:54;;;;;;;7.03;4.30;;;20.50;98.80;;;;;;4939359;29;20055;-88
2021/09/18 10:54:19;;;;;;;7.43;4.65;;;20.30;98.10;;;;;;4936157;29;20039;-89
2021/09/18 10:56:56;;;;;;;7.13;4.03;;;20.30;97.70;;;;;;4920232;29;20051;-88
2021/09/18 10:59:41;;;;;;;6.47;3.97;;;20.30;97.10;;;;;;4938687;29;20039;-88
2021/09/18 11:02:32;;;;;;;8.38;4.07;;;20.50;96.60;;;;;;4921505;29;20523;-87
2021/09/18 11:04:58;;;;;;;6.95;3.60;;;20.70;96.00;;;;;;4920910;29;20028;-88
2021/09/18 11:07:49;;;;;;;9.07;4.53;;;21.10;95.50;;;;;;4921083;29;20026;-88
2021/09/18 11:10:20;;;;;;;7.75;4.78;;;21.30;93.60;;;;;;4937351;29;20099;-87
2021/09/18 11:13:09;;;;;;;8.18;4.47;;;21.60;93.30;;;;;;4921082;29;20078;-87
2021/09/18 11:15:47;;;;;;;6.88;5.00;;;21.70;91.90;;;;;;4930125;29;20040;-87
2021/09/18 11:18:17;;;;;;;11.05;4.85;;;21.90;91.60;;;;;;4937548;29;20111;-87
2021/09/18 11:20:43;;;;;;;9.88;4.43;;;22.10;91.10;;;;;;4920431;29;20393;-88
2021/09/18 11:23:09;;;;;;;8.07;4.63;;;22.30;90.90;;;;;;4919935;29;20039;-85
2021/09/18 11:25:43;;;;;;;7.82;4.80;;;22.50;90.10;;;;;;4937296;29;20028;-87
2021/09/18 11:28:14;;;;;;;8.63;4.18;;;22.70;89.40;;;;;;4920033;29;20020;-85
2021/09/18 11:30:47;;;;;;;9.30;4.28;;;22.80;87.80;;;;;;4917666;29;20116;-85
2021/09/18 11:33:16;;;;;;;7.32;4.53;;;23.10;86.50;;;;;;4919964;29;20473;-86
2021/09/18 11:35:57;;;;;;;8.55;4.38;;;23.20;85.70;;;;;;4936837;29;20028;-88
2021/09/18 11:38:29;;;;;;;7.25;3.90;;;23.40;84.40;;;;;;4920109;29;20493;-85
2021/09/18 11:41:13;;;;;;;7.05;4.18;;;23.50;82.80;;;;;;4920049;29;20028;-87
2021/09/18 11:43:40;;;;;;;7.38;4.22;;;23.70;82.30;;;;;;4919928;29;20037;-87
2021/09/18 11:46:07;;;;;;;6.20;4.32;;;23.90;81.50;;;;;;4918320;29;20028;-88
2021/09/18 11:48:33;;;;;;;8.60;4.97;;;23.90;80.80;;;;;;4919127;29;20036;-88
2021/09/18 11:51:02;;;;;;;8.55;4.95;;;23.80;80.00;;;;;;4918905;29;20034;-88
2021/09/18 11:53:28;;;;;;;9.13;5.03;;;23.70;79.90;;;;;;4927704;29;20070;-87
2021/09/18 11:55:55;;;;;;;16.98;8.93;;;23.60;80.20;;;;;;4916304;29;20028;-87
2021/09/18 11:58:25;;;;;;;8.73;5.82;;;23.70;80.00;;;;;;4917111;29;20088;-88
2021/09/18 12:00:58;;;;;;;8.98;4.40;;;23.60;79.80;;;;;;4917953;29;20042;-88
2021/09/18 12:03:25;;;;;;;7.40;4.63;;;23.60;80.00;;;;;;4917468;29;20062;-87
2021/09/18 12:06:12;;;;;;;8.07;4.03;;;23.70;79.80;;;;;;4917718;29;20039;-87
2021/09/18 12:08:41;;;;;;;6.45;4.38;;;23.90;79.30;;;;;;4917109;29;20058;-88
2021/09/18 12:11:11;;;;;;;7.60;3.75;;;24.00;78.70;;;;;;4917699;29;20028;-87
2021/09/18 12:13:42;;;;;;;7.45;4.03;;;24.10;77.40;;;;;;4917171;29;20027;-86
2021/09/18 12:16:09;;;;;;;3.78;2.75;;;24.10;76.70;;;;;;4917023;29;20489;-85
2021/09/18 12:18:37;;;;;;;4.35;2.85;;;24.10;76.10;;;;;;4934594;29;20046;-86
2021/09/18 12:21:17;;;;;;;5.22;3.08;;;24.30;76.30;;;;;;4934650;29;21229;-86
2021/09/18 12:23:46;;;;;;;4.85;2.95;;;24.60;75.90;;;;;;4934108;29;20027;-86
2021/09/18 12:26:13;;;;;;;4.60;2.70;;;25.20;74.50;;;;;;4917327;29;20095;-87
2021/09/18 12:28:39;;;;;;;5.05;2.67;;;25.40;72.00;;;;;;4917672;29;20442;-86
2021/09/18 12:31:21;;;;;;;3.28;1.90;;;25.60;71.30;;;;;;4917410;29;20023;-89
2021/09/18 12:33:48;;;;;;;2.75;1.80;;;25.70;70.40;;;;;;4916683;29;20580;-88
2021/09/18 12:36:17;;;;;;;3.85;1.80;;;25.70;70.10;;;;;;4917116;29;20028;-88
2021/09/18 12:38:44;;;;;;;4.10;1.60;;;25.50;69.50;;;;;;4918912;29;20036;-87
2021/09/18 12:41:12;;;;;;;4.18;2.20;;;25.60;69.60;;;;;;4934019;29;20074;-87
2021/09/18 12:43:52;;;;;;;1.63;1.30;;;25.80;69.30;;;;;;4916681;29;20038;-88
2021/09/18 12:46:18;;;;;;;3.60;1.38;;;26.00;68.70;;;;;;4917114;29;20485;-88
2021/09/18 12:48:58;;;;;;;3.35;1.40;;;26.20;68.10;;;;;;4916258;29;20024;-87
2021/09/18 12:51:24;;;;;;;1.70;1.30;;;26.30;66.30;;;;;;4915743;29;20436;-87